Time;durP1;ratioP1;P1;durP2;ratioP2;P2;SDS_P1;SDS_P2;PMS_P1;PMS_P2;Temp;Humidity;BMP_temperature;BMP_pressure;BME280_temperature;BME280_humidity;BME280_pressure;Samples;Min_cycle;Max_cycle;Signal;HPM_P1;HPM_P2
2023/01/10 00:00:24;;;;;;;8.00;2.37;;;;;;;;;;4955413;28;20206;-64
2023/01/10 00:02:50;;;;;;;7.35;2.13;;;;;;;;;;4956943;28;20285;-64
2023/01/10 00:05:15;;;;;;;10.00;2.40;;;;;;;;;;4956146;28;20226;-64
2023/01/10 00:07:40;;;;;;;7.77;2.53;;;;;;;;;;4956358;28;20219;-64
2023/01/10 00:10:06;;;;;;;9.40;2.33;;;;;;;;;;4956332;28;20234;-64
2023/01/10 00:15:15;;;;;;;8.20;3.10;;;;;;;;;;4955478;28;20263;-64
2023/01/10 00:17:40;;;;;;;8.88;2.30;;;;;;;;;;4956548;28;20211;-64
2023/01/10 00:20:05;;;;;;;6.63;2.17;;;;;;;;;;4955552;28;20245;-64
2023/01/10 00:22:31;;;;;;;11.77;2.63;;;;;;;;;;4956497;28;20713;-64
2023/01/10 00:24:56;;;;;;;11.87;2.70;;;;;;;;;;4956261;28;20768;-64
2023/01/10 00:27:21;;;;;;;7.97;2.17;;;;;;;;;;4955195;28;20221;-64
2023/01/10 00:29:47;;;;;;;7.00;2.30;;;;;;;;;;4956478;28;20219;-64
2023/01/10 00:32:12;;;;;;;7.47;2.27;;;;;;;;;;4955728;28;20241;-64
2023/01/10 00:34:37;;;;;;;7.78;2.50;;;;;;;;;;4955280;28;20696;-64
2023/01/10 00:37:03;;;;;;;9.17;2.40;;;;;;;;;;4955830;28;20222;-64
2023/01/10 00:39:28;;;;;;;8.03;2.30;;;;;;;;;;4956086;28;20226;-64
2023/01/10 00:44:37;;;;;;;11.87;2.40;;;;;;;;;;4955788;28;20242;-64
2023/01/10 00:47:03;;;;;;;8.77;2.50;;;;;;;;;;4955518;28;20218;-63
2023/01/10 00:49:28;;;;;;;8.17;2.07;;;;;;;;;;4955338;28;20206;-64
2023/01/10 00:51:57;;;;;;;9.07;2.23;;;;;;;;;;4955718;28;20218;-64
2023/01/10 00:54:22;;;;;;;6.57;1.70;;;;;;;;;;4955548;28;20554;-64
2023/01/10 00:56:47;;;;;;;9.67;2.27;;;;;;;;;;4954952;28;20214;-64
2023/01/10 00:59:12;;;;;;;9.63;2.50;;;;;;;;;;4955653;28;20218;-64
2023/01/10 01:01:38;;;;;;;10.50;2.67;;;;;;;;;;4955507;28;20262;-64
2023/01/10 01:04:03;;;;;;;9.20;2.73;;;;;;;;;;4954689;28;20237;-63
2023/01/10 01:06:28;;;;;;;8.20;2.00;;;;;;;;;;4955719;28;20257;-64
2023/01/10 01:08:54;;;;;;;10.57;2.25;;;;;;;;;;4955956;28;20218;-64
2023/01/10 01:11:19;;;;;;;8.93;2.40;;;;;;;;;;4954304;28;20218;-64
2023/01/10 01:13:44;;;;;;;10.55;2.63;;;;;;;;;;4955446;28;20218;-65
2023/01/10 01:16:09;;;;;;;7.87;2.27;;;;;;;;;;4954961;28;20218;-64
2023/01/10 01:18:35;;;;;;;6.73;2.23;;;;;;;;;;4954673;28;20242;-64
2023/01/10 01:21:02;;;;;;;7.70;2.10;;;;;;;;;;4954317;28;20219;-62
2023/01/10 01:23:28;;;;;;;8.33;2.30;;;;;;;;;;4952855;28;20237;-64
2023/01/10 01:25:53;;;;;;;10.13;2.37;;;;;;;;;;4954336;28;20227;-65
2023/01/10 01:28:19;;;;;;;7.83;2.40;;;;;;;;;;4954373;28;20218;-64
2023/01/10 01:30:44;;;;;;;7.32;2.05;;;;;;;;;;4929444;29;20808;-64
2023/01/10 01:33:09;;;;;;;6.93;2.00;;;;;;;;;;4924829;29;20222;-64
2023/01/10 01:35:35;;;;;;;8.60;2.20;;;;;;;;;;4925732;29;20314;-64
2023/01/10 01:38:00;;;;;;;13.23;3.07;;;;;;;;;;4925562;28;20207;-64
2023/01/10 01:40:25;;;;;;;9.55;2.55;;;;;;;;;;4925853;29;20741;-64
2023/01/10 01:42:54;;;;;;;8.00;2.03;;;;;;;;;;4924656;29;20227;-64
2023/01/10 01:45:23;;;;;;;7.15;2.00;;;;;;;;;;4912805;29;20222;-64
2023/01/10 01:47:51;;;;;;;6.90;2.10;;;;;;;;;;4916303;29;20223;-65
2023/01/10 01:50:18;;;;;;;9.10;2.43;;;;;;;;;;4936256;28;20241;-64
2023/01/10 01:52:43;;;;;;;8.57;2.10;;;;;;;;;;4925237;29;20348;-64
2023/01/10 01:55:09;;;;;;;9.10;2.35;;;;;;;;;;4923207;29;20294;-63
2023/01/10 01:57:34;;;;;;;11.60;2.50;;;;;;;;;;4925985;29;20219;-64
2023/01/10 01:59:59;;;;;;;7.27;2.20;;;;;;;;;;4924224;29;20222;-64
2023/01/10 02:02:26;;;;;;;8.10;2.23;;;;;;;;;;4924892;29;20242;-64
2023/01/10 02:04:52;;;;;;;7.17;2.40;;;;;;;;;;4924647;29;20381;-64
2023/01/10 02:07:17;;;;;;;7.40;1.90;;;;;;;;;;4921787;28;20954;-64
2023/01/10 02:09:45;;;;;;;8.60;2.03;;;;;;;;;;4917462;29;20230;-64
2023/01/10 02:12:11;;;;;;;8.00;2.30;;;;;;;;;;4916274;29;20576;-64
2023/01/10 02:14:36;;;;;;;7.40;1.97;;;;;;;;;;4920228;29;20695;-64
2023/01/10 02:17:02;;;;;;;9.23;2.83;;;;;;;;;;4924496;29;20223;-63
2023/01/10 02:19:27;;;;;;;8.20;2.33;;;;;;;;;;4924758;29;20242;-65
2023/01/10 02:22:04;;;;;;;11.67;2.30;;;;;;;;;;4924263;29;20234;-64
2023/01/10 02:24:47;;;;;;;8.97;2.20;;;;;;;;;;4941926;28;20234;-64
2023/01/10 02:27:21;;;;;;;7.65;2.55;;;;;;;;;;4941293;28;20226;-64
2023/01/10 02:30:07;;;;;;;10.88;2.67;;;;;;;;;;4939438;28;20246;-64
2023/01/10 02:32:37;;;;;;;6.60;2.10;;;;;;;;;;4934128;28;20215;-64
2023/01/10 02:35:03;;;;;;;7.90;2.47;;;;;;;;;;4926066;28;20341;-64
2023/01/10 02:37:34;;;;;;;8.00;2.67;;;;;;;;;;4940877;28;20218;-64
2023/01/10 02:40:05;;;;;;;7.80;2.37;;;;;;;;;;4958509;28;20222;-64
2023/01/10 02:42:42;;;;;;;7.43;2.23;;;;;;;;;;4943514;28;20222;-64
2023/01/10 02:45:10;;;;;;;8.13;2.40;;;;;;;;;;4942809;28;20238;-64
2023/01/10 02:47:36;;;;;;;9.73;2.63;;;;;;;;;;4958355;28;20554;-64
2023/01/10 02:50:37;;;;;;;11.63;2.90;;;;;;;;;;4942635;28;20293;-63
2023/01/10 02:53:03;;;;;;;8.97;2.77;;;;;;;;;;4945414;28;20577;-63
2023/01/10 02:55:38;;;;;;;11.37;2.40;;;;;;;;;;4952780;28;20218;-64
2023/01/10 02:58:07;;;;;;;6.93;2.23;;;;;;;;;;4953593;28;20217;-64
2023/01/10 03:00:35;;;;;;;7.10;2.50;;;;;;;;;;4960103;28;20681;-64
2023/01/10 03:03:08;;;;;;;6.28;2.00;;;;;;;;;;4957220;28;20269;-63
2023/01/10 03:05:51;;;;;;;8.87;2.07;;;;;;;;;;4944169;28;20218;-64
2023/01/10 03:08:17;;;;;;;7.67;2.30;;;;;;;;;;4961645;28;20869;-64
2023/01/10 03:10:51;;;;;;;9.53;2.60;;;;;;;;;;4951511;28;20269;-64
2023/01/10 03:13:29;;;;;;;8.83;2.33;;;;;;;;;;4948069;28;20245;-64
2023/01/10 03:15:55;;;;;;;7.57;2.13;;;;;;;;;;4954020;28;20217;-64
2023/01/10 03:18:22;;;;;;;9.83;2.40;;;;;;;;;;4952554;28;20225;-64
2023/01/10 03:20:48;;;;;;;8.80;2.20;;;;;;;;;;4954811;28;20732;-64
2023/01/10 03:23:13;;;;;;;8.40;2.00;;;;;;;;;;4961376;28;20237;-64
2023/01/10 03:25:39;;;;;;;8.67;2.03;;;;;;;;;;4970639;28;20218;-64
2023/01/10 03:28:05;;;;;;;8.10;2.03;;;;;;;;;;4972702;28;20222;-64
2023/01/10 03:30:34;;;;;;;8.23;1.93;;;;;;;;;;4970894;28;20214;-64
2023/01/10 03:32:59;;;;;;;8.60;2.00;;;;;;;;;;4973167;28;20214;-65
2023/01/10 03:35:30;;;;;;;7.67;2.00;;;;;;;;;;4958707;28;20237;-64
2023/01/10 03:37:57;;;;;;;8.97;2.13;;;;;;;;;;4954316;28;20237;-64
2023/01/10 03:40:31;;;;;;;8.33;2.20;;;;;;;;;;4935491;28;20570;-64
2023/01/10 03:45:48;;;;;;;9.20;2.27;;;;;;;;;;4936545;29;20241;-64
2023/01/10 03:48:13;;;;;;;11.00;2.20;;;;;;;;;;4939068;28;20707;-64
2023/01/10 03:50:39;;;;;;;7.10;2.03;;;;;;;;;;4940001;29;20218;-64
2023/01/10 03:53:04;;;;;;;9.17;2.33;;;;;;;;;;4955310;28;20297;-63
2023/01/10 03:55:29;;;;;;;9.17;2.13;;;;;;;;;;4938951;29;20223;-64
2023/01/10 03:57:55;;;;;;;9.53;2.50;;;;;;;;;;4955527;28;20218;-64
2023/01/10 04:00:20;;;;;;;8.40;2.23;;;;;;;;;;4955595;28;20222;-64
2023/01/10 04:02:46;;;;;;;8.70;2.20;;;;;;;;;;4956795;28;20670;-64
2023/01/10 04:05:11;;;;;;;8.13;2.30;;;;;;;;;;4955676;28;20218;-65
2023/01/10 04:07:36;;;;;;;13.23;3.47;;;;;;;;;;4939120;28;20229;-67
2023/01/10 04:10:03;;;;;;;10.03;2.53;;;;;;;;;;4927800;29;20230;-66
2023/01/10 04:12:28;;;;;;;9.13;2.27;;;;;;;;;;4927311;29;20313;-67
2023/01/10 04:14:54;;;;;;;10.40;2.40;;;;;;;;;;4928082;29;20255;-67
2023/01/10 04:17:19;;;;;;;9.83;2.70;;;;;;;;;;4939778;28;20253;-67
2023/01/10 04:19:44;;;;;;;7.53;2.20;;;;;;;;;;4944505;28;20214;-68
2023/01/10 04:22:10;;;;;;;10.50;2.80;;;;;;;;;;4926508;28;20223;-67
2023/01/10 04:24:35;;;;;;;12.03;2.73;;;;;;;;;;4919873;29;20544;-68
2023/01/10 04:27:00;;;;;;;10.20;2.90;;;;;;;;;;4923233;28;20833;-64
2023/01/10 04:29:26;;;;;;;11.17;2.90;;;;;;;;;;4927792;29;20345;-67
2023/01/10 04:31:51;;;;;;;10.57;3.10;;;;;;;;;;4927792;29;20899;-67
2023/01/10 04:34:18;;;;;;;11.33;3.23;;;;;;;;;;4926591;29;20223;-67
2023/01/10 04:36:44;;;;;;;12.07;2.90;;;;;;;;;;4927240;29;20318;-67
2023/01/10 04:39:09;;;;;;;9.57;2.87;;;;;;;;;;4927462;28;20321;-67
2023/01/10 04:41:34;;;;;;;12.47;3.60;;;;;;;;;;4927406;29;20234;-67
2023/01/10 04:44:00;;;;;;;8.77;2.37;;;;;;;;;;4921352;29;20702;-68
2023/01/10 04:46:25;;;;;;;11.87;3.50;;;;;;;;;;4919002;29;20223;-67
2023/01/10 04:48:51;;;;;;;9.70;3.00;;;;;;;;;;4917559;29;20215;-67
2023/01/10 04:51:16;;;;;;;7.88;2.63;;;;;;;;;;4925126;29;20214;-67
2023/01/10 04:53:41;;;;;;;9.53;2.93;;;;;;;;;;4927569;29;20635;-67
2023/01/10 04:56:08;;;;;;;11.47;3.07;;;;;;;;;;4920998;29;20211;-67
2023/01/10 04:58:34;;;;;;;11.27;3.30;;;;;;;;;;4926297;29;20226;-67
2023/01/10 05:00:59;;;;;;;10.27;3.10;;;;;;;;;;4927111;29;20976;-67
2023/01/10 05:03:24;;;;;;;13.97;3.40;;;;;;;;;;4926018;29;20223;-67
2023/01/10 05:05:50;;;;;;;12.33;3.40;;;;;;;;;;4923257;29;20211;-68
2023/01/10 05:08:15;;;;;;;9.47;3.50;;;;;;;;;;4919064;29;20231;-67
2023/01/10 05:10:40;;;;;;;10.83;2.87;;;;;;;;;;4918176;29;20226;-67
2023/01/10 05:13:05;;;;;;;13.13;3.33;;;;;;;;;;4922415;29;20231;-66
2023/01/10 05:15:31;;;;;;;10.77;3.07;;;;;;;;;;4935301;29;20736;-68
2023/01/10 05:17:57;;;;;;;13.00;3.10;;;;;;;;;;4954676;28;20242;-67
2023/01/10 05:20:22;;;;;;;20.13;3.80;;;;;;;;;;4955100;28;20215;-67
2023/01/10 05:22:48;;;;;;;12.20;3.50;;;;;;;;;;4954542;28;20298;-67
2023/01/10 05:25:13;;;;;;;9.20;2.90;;;;;;;;;;4954924;28;20302;-67
2023/01/10 05:27:39;;;;;;;10.60;3.23;;;;;;;;;;4955507;28;20242;-67
2023/01/10 05:30:05;;;;;;;12.33;3.20;;;;;;;;;;4954057;28;20703;-67
2023/01/10 05:32:30;;;;;;;11.70;3.27;;;;;;;;;;4954988;28;20301;-67
2023/01/10 05:34:56;;;;;;;11.37;3.27;;;;;;;;;;4955086;28;20737;-67
2023/01/10 05:37:21;;;;;;;11.40;3.10;;;;;;;;;;4953076;28;20302;-67
2023/01/10 05:39:46;;;;;;;12.80;3.50;;;;;;;;;;4951470;28;20898;-68
2023/01/10 05:42:11;;;;;;;10.37;3.00;;;;;;;;;;4948696;28;20222;-67
2023/01/10 05:44:37;;;;;;;9.57;2.90;;;;;;;;;;4952203;28;20218;-67
2023/01/10 05:47:02;;;;;;;11.80;3.33;;;;;;;;;;4952338;28;20586;-66
2023/01/10 05:49:27;;;;;;;12.90;3.33;;;;;;;;;;4953181;28;20218;-67
2023/01/10 05:51:53;;;;;;;8.98;2.90;;;;;;;;;;4935232;28;20571;-67
2023/01/10 05:54:18;;;;;;;13.33;3.40;;;;;;;;;;4924449;29;20227;-67
2023/01/10 05:56:43;;;;;;;12.37;3.60;;;;;;;;;;4924158;29;20665;-67
2023/01/10 05:59:09;;;;;;;14.30;3.57;;;;;;;;;;4923242;29;20391;-67
2023/01/10 06:01:34;;;;;;;10.93;3.50;;;;;;;;;;4924156;29;20695;-67
2023/01/10 06:03:59;;;;;;;11.20;3.30;;;;;;;;;;4924310;29;20305;-67
2023/01/10 06:06:25;;;;;;;10.60;3.00;;;;;;;;;;4916301;29;20617;-67
2023/01/10 06:08:50;;;;;;;8.93;2.97;;;;;;;;;;4917569;29;20688;-68
2023/01/10 06:11:15;;;;;;;15.90;3.80;;;;;;;;;;4918197;29;20211;-67
2023/01/10 06:13:40;;;;;;;14.03;3.43;;;;;;;;;;4924998;29;20207;-67
2023/01/10 06:16:06;;;;;;;13.63;3.65;;;;;;;;;;4926202;29;20250;-66
2023/01/10 06:18:31;;;;;;;9.60;3.40;;;;;;;;;;4926186;29;20613;-67
2023/01/10 06:20:56;;;;;;;12.40;3.53;;;;;;;;;;4926299;29;20243;-68
2023/01/10 06:23:22;;;;;;;13.30;3.90;;;;;;;;;;4924526;29;20855;-67
2023/01/10 06:25:47;;;;;;;13.10;4.10;;;;;;;;;;4942634;28;20218;-68
2023/01/10 06:28:12;;;;;;;14.27;3.90;;;;;;;;;;4925850;28;20238;-67
2023/01/10 06:30:40;;;;;;;12.80;3.47;;;;;;;;;;4918839;28;20317;-67
2023/01/10 06:33:06;;;;;;;9.77;3.20;;;;;;;;;;4934643;28;20686;-66
2023/01/10 06:35:32;;;;;;;14.63;4.30;;;;;;;;;;4940594;28;20246;-67
2023/01/10 06:37:57;;;;;;;12.37;3.63;;;;;;;;;;4927394;28;20253;-67
2023/01/10 06:40:22;;;;;;;11.90;3.83;;;;;;;;;;4923003;29;20222;-67
2023/01/10 06:42:49;;;;;;;13.63;3.83;;;;;;;;;;4924280;29;20707;-68
2023/01/10 06:45:14;;;;;;;16.00;4.30;;;;;;;;;;4924635;29;20587;-67
2023/01/10 06:47:40;;;;;;;17.87;6.37;;;;;;;;;;4925390;29;20226;-67
2023/01/10 06:50:05;;;;;;;17.65;6.80;;;;;;;;;;4923311;28;20223;-67
2023/01/10 06:52:32;;;;;;;36.13;20.87;;;;;;;;;;4917734;29;20338;-68
2023/01/10 06:54:57;;;;;;;25.17;11.80;;;;;;;;;;4921691;29;20882;-68
2023/01/10 06:57:23;;;;;;;21.40;10.63;;;;;;;;;;4937710;28;20214;-68
2023/01/10 06:59:48;;;;;;;13.40;4.60;;;;;;;;;;4944437;28;20226;-68
2023/01/10 07:02:13;;;;;;;12.20;3.93;;;;;;;;;;4942830;28;20688;-67
2023/01/10 07:04:39;;;;;;;13.07;3.90;;;;;;;;;;4944234;28;20240;-68
2023/01/10 07:07:04;;;;;;;11.73;4.20;;;;;;;;;;4930008;28;20226;-67
2023/01/10 07:09:29;;;;;;;13.07;4.17;;;;;;;;;;4924813;29;20638;-67
2023/01/10 07:11:54;;;;;;;12.93;4.00;;;;;;;;;;4925122;29;20672;-68
2023/01/10 07:14:20;;;;;;;13.75;4.10;;;;;;;;;;4914672;29;20310;-67
2023/01/10 07:16:45;;;;;;;14.23;4.10;;;;;;;;;;4916967;29;20233;-68
2023/01/10 07:19:12;;;;;;;13.27;4.17;;;;;;;;;;4916600;29;20215;-67
2023/01/10 07:21:37;;;;;;;13.43;3.77;;;;;;;;;;4925568;29;20230;-68
2023/01/10 07:24:03;;;;;;;16.20;4.07;;;;;;;;;;4927666;29;20230;-67
2023/01/10 07:26:28;;;;;;;12.13;4.05;;;;;;;;;;4928748;29;20241;-68
2023/01/10 07:28:54;;;;;;;12.20;3.60;;;;;;;;;;4929087;29;20225;-68
2023/01/10 07:31:19;;;;;;;13.97;4.33;;;;;;;;;;4927174;29;20755;-68
2023/01/10 07:33:44;;;;;;;16.83;4.73;;;;;;;;;;4928559;29;20219;-68
2023/01/10 07:36:10;;;;;;;13.73;3.43;;;;;;;;;;4923295;29;20246;-67
2023/01/10 07:38:36;;;;;;;12.90;3.30;;;;;;;;;;4920814;28;20258;-68
2023/01/10 07:41:02;;;;;;;11.63;3.47;;;;;;;;;;4918835;29;20551;-67
2023/01/10 07:43:27;;;;;;;12.87;3.70;;;;;;;;;;4924954;29;20230;-67
2023/01/10 07:45:52;;;;;;;13.13;3.80;;;;;;;;;;4928542;29;20258;-68
2023/01/10 07:48:18;;;;;;;14.97;3.83;;;;;;;;;;4935449;28;20238;-67
2023/01/10 07:50:43;;;;;;;12.90;3.60;;;;;;;;;;4944377;28;20258;-68
2023/01/10 07:53:08;;;;;;;14.67;3.83;;;;;;;;;;4928252;29;20243;-68
2023/01/10 07:55:35;;;;;;;13.63;3.80;;;;;;;;;;4928157;29;20219;-69
2023/01/10 07:58:00;;;;;;;14.07;4.20;;;;;;;;;;4924256;29;20496;-66
2023/01/10 08:00:25;;;;;;;12.53;3.43;;;;;;;;;;4923408;29;20215;-68
2023/01/10 08:02:52;;;;;;;16.42;4.22;;;;;;;;;;4948248;28;20419;-65
2023/01/10 08:05:17;;;;;;;17.67;4.00;;;;;;;;;;4954655;28;20246;-67
2023/01/10 08:07:43;;;;;;;14.50;3.33;;;;;;;;;;4956231;28;20242;-66
2023/01/10 08:10:09;;;;;;;14.77;3.50;;;;;;;;;;4955934;28;20222;-65
2023/01/10 08:12:34;;;;;;;12.65;3.67;;;;;;;;;;4955515;28;20305;-66
2023/01/10 08:14:59;;;;;;;14.73;4.23;;;;;;;;;;4956269;28;20207;-66
2023/01/10 08:17:24;;;;;;;14.38;3.45;;;;;;;;;;4955457;28;20218;-65
2023/01/10 08:19:50;;;;;;;12.70;3.77;;;;;;;;;;4955400;28;20217;-66
2023/01/10 08:22:15;;;;;;;12.73;3.53;;;;;;;;;;4955277;28;20219;-66
2023/01/10 08:24:40;;;;;;;13.03;3.80;;;;;;;;;;4955902;28;20232;-66
2023/01/10 08:27:06;;;;;;;14.13;3.83;;;;;;;;;;4954726;28;20221;-65
2023/01/10 08:29:31;;;;;;;13.03;3.43;;;;;;;;;;4955549;28;20221;-65
2023/01/10 08:31:56;;;;;;;16.40;4.10;;;;;;;;;;4955907;28;20214;-65
2023/01/10 08:34:22;;;;;;;14.13;3.23;;;;;;;;;;4953299;28;20229;-66
2023/01/10 08:36:49;;;;;;;12.33;3.30;;;;;;;;;;4955658;28;20226;-65
2023/01/10 08:39:14;;;;;;;15.30;4.10;;;;;;;;;;4953844;28;20607;-65
2023/01/10 08:41:40;;;;;;;13.20;3.53;;;;;;;;;;4955004;28;20245;-65
2023/01/10 08:44:05;;;;;;;16.63;4.03;;;;;;;;;;4955147;28;20226;-67
2023/01/10 08:46:30;;;;;;;14.43;3.77;;;;;;;;;;4955059;28;20286;-66
2023/01/10 08:48:56;;;;;;;11.20;3.30;;;;;;;;;;4955832;28;20211;-66
2023/01/10 08:51:21;;;;;;;11.97;3.60;;;;;;;;;;4955002;28;20261;-65
2023/01/10 08:53:47;;;;;;;13.27;4.00;;;;;;;;;;4952037;28;20428;-67
2023/01/10 08:56:12;;;;;;;15.40;3.77;;;;;;;;;;4954473;28;20214;-68
2023/01/10 08:58:37;;;;;;;13.43;3.77;;;;;;;;;;4955229;28;20207;-68
2023/01/10 09:01:04;;;;;;;18.17;3.78;;;;;;;;;;4954157;28;20203;-68
2023/01/10 09:03:29;;;;;;;14.67;4.40;;;;;;;;;;4955034;28;20272;-69
2023/01/10 09:05:54;;;;;;;15.77;4.10;;;;;;;;;;4955196;28;20202;-70
2023/01/10 09:08:20;;;;;;;14.10;3.23;;;;;;;;;;4954157;28;20267;-69
2023/01/10 09:10:46;;;;;;;14.67;3.80;;;;;;;;;;4955069;28;20206;-70
2023/01/10 09:13:12;;;;;;;14.23;3.88;;;;;;;;;;4954209;28;20575;-69
2023/01/10 09:15:37;;;;;;;13.73;3.63;;;;;;;;;;4954494;28;20220;-71
2023/01/10 09:18:03;;;;;;;12.73;3.10;;;;;;;;;;4955404;28;20214;-70
2023/01/10 09:20:29;;;;;;;14.37;3.93;;;;;;;;;;4955290;28;20587;-70
2023/01/10 09:22:55;;;;;;;13.60;3.40;;;;;;;;;;4954570;28;20254;-70
2023/01/10 09:25:20;;;;;;;13.57;3.63;;;;;;;;;;4955159;28;20222;-70
2023/01/10 09:27:46;;;;;;;13.13;3.47;;;;;;;;;;4955340;28;20273;-70
2023/01/10 09:30:11;;;;;;;16.20;3.80;;;;;;;;;;4954240;28;20694;-70
2023/01/10 09:32:37;;;;;;;14.97;3.97;;;;;;;;;;4955396;28;20222;-70
2023/01/10 09:35:02;;;;;;;12.13;3.40;;;;;;;;;;4954797;28;20257;-69
2023/01/10 09:37:27;;;;;;;16.43;4.37;;;;;;;;;;4954567;28;20577;-70
2023/01/10 09:39:53;;;;;;;12.27;3.20;;;;;;;;;;4955376;28;20226;-70
2023/01/10 09:42:28;;;;;;;11.57;3.47;;;;;;;;;;4954756;28;20592;-70
2023/01/10 09:45:02;;;;;;;12.83;3.27;;;;;;;;;;4953858;28;20234;-70
2023/01/10 09:47:33;;;;;;;15.73;3.70;;;;;;;;;;4937798;29;20293;-70
2023/01/10 09:50:01;;;;;;;13.67;3.50;;;;;;;;;;4954542;28;20226;-70
2023/01/10 09:52:27;;;;;;;12.83;3.70;;;;;;;;;;4954621;28;20226;-70
2023/01/10 09:54:53;;;;;;;12.60;3.43;;;;;;;;;;4954854;28;20218;-70
2023/01/10 09:57:19;;;;;;;16.80;4.13;;;;;;;;;;4953823;28;20284;-70
2023/01/10 09:59:46;;;;;;;14.67;3.50;;;;;;;;;;4937668;29;20297;-70
2023/01/10 10:02:23;;;;;;;11.97;3.70;;;;;;;;;;4937828;28;20331;-70
2023/01/10 10:04:57;;;;;;;13.13;3.90;;;;;;;;;;4936744;29;20602;-70
2023/01/10 10:07:22;;;;;;;13.37;3.77;;;;;;;;;;4937157;28;20218;-70
2023/01/10 10:09:48;;;;;;;15.38;4.22;;;;;;;;;;4937773;29;20274;-70
2023/01/10 10:12:22;;;;;;;10.97;3.47;;;;;;;;;;4953525;28;20701;-70
2023/01/10 10:14:56;;;;;;;14.73;4.00;;;;;;;;;;4935479;29;20682;-70
2023/01/10 10:17:48;;;;;;;13.95;4.13;;;;;;;;;;4935114;29;20603;-70
2023/01/10 10:20:31;;;;;;;18.42;6.53;;;;;;;;;;4949021;28;20227;-70
2023/01/10 10:23:12;;;;;;;23.37;8.70;;;;;;;;;;4935412;29;20219;-70
2023/01/10 10:25:43;;;;;;;15.60;4.17;;;;;;;;;;4949035;28;20219;-70
2023/01/10 10:28:13;;;;;;;16.47;4.73;;;;;;;;;;4934977;29;20215;-70
2023/01/10 10:30:43;;;;;;;14.90;4.40;;;;;;;;;;4935288;29;20662;-70
2023/01/10 10:33:12;;;;;;;14.98;4.05;;;;;;;;;;4934331;29;20227;-70
2023/01/10 10:35:38;;;;;;;12.50;3.73;;;;;;;;;;4959341;28;20372;-70
2023/01/10 10:38:11;;;;;;;13.25;3.95;;;;;;;;;;4953066;28;20244;-69
2023/01/10 10:40:37;;;;;;;14.37;4.03;;;;;;;;;;4956577;28;20226;-70
2023/01/10 10:43:10;;;;;;;16.83;3.83;;;;;;;;;;4973461;28;20214;-70
2023/01/10 10:45:43;;;;;;;11.13;3.50;;;;;;;;;;4973567;28;20271;-70
2023/01/10 10:48:21;;;;;;;13.10;3.70;;;;;;;;;;4972658;28;20280;-69
2023/01/10 10:50:53;;;;;;;13.00;4.37;;;;;;;;;;4969556;28;20226;-69
2023/01/10 10:53:18;;;;;;;14.38;3.80;;;;;;;;;;4968966;28;20210;-70
2023/01/10 10:55:43;;;;;;;13.60;4.13;;;;;;;;;;4973250;28;20735;-70
2023/01/10 10:58:09;;;;;;;13.67;3.70;;;;;;;;;;4975780;28;20220;-69
2023/01/10 11:00:34;;;;;;;14.47;4.17;;;;;;;;;;4974666;28;20221;-70
2023/01/10 11:03:04;;;;;;;14.07;3.73;;;;;;;;;;4975872;28;20247;-70
2023/01/10 11:05:35;;;;;;;14.63;3.80;;;;;;;;;;4975406;28;20693;-70
2023/01/10 11:08:11;;;;;;;13.93;3.23;;;;;;;;;;4970684;28;20301;-69
2023/01/10 11:10:37;;;;;;;15.83;3.50;;;;;;;;;;4977330;28;20217;-70
2023/01/10 11:13:11;;;;;;;14.67;3.40;;;;;;;;;;4976655;28;20668;-70
2023/01/10 11:15:37;;;;;;;10.57;3.20;;;;;;;;;;4975268;28;20213;-70
2023/01/10 11:18:04;;;;;;;12.63;3.43;;;;;;;;;;4976913;28;20268;-70
2023/01/10 11:20:29;;;;;;;13.27;3.47;;;;;;;;;;4977139;28;20467;-71
2023/01/10 11:22:54;;;;;;;12.23;3.23;;;;;;;;;;4975270;28;20681;-71
2023/01/10 11:25:20;;;;;;;12.80;3.50;;;;;;;;;;4976457;28;20226;-70
2023/01/10 11:27:47;;;;;;;13.90;3.92;;;;;;;;;;4974712;28;20234;-71
2023/01/10 11:30:17;;;;;;;12.60;3.50;;;;;;;;;;4974576;28;20214;-70
2023/01/10 11:32:50;;;;;;;11.15;3.25;;;;;;;;;;4975901;28;20238;-70
2023/01/10 11:35:18;;;;;;;13.17;3.80;;;;;;;;;;4975109;28;20261;-70
2023/01/10 11:37:43;;;;;;;13.43;3.53;;;;;;;;;;4976821;28;20225;-70
2023/01/10 11:40:16;;;;;;;12.57;3.30;;;;;;;;;;4975050;28;20221;-70
2023/01/10 11:42:41;;;;;;;13.07;4.00;;;;;;;;;;4956797;28;20222;-70
2023/01/10 11:45:16;;;;;;;13.63;3.43;;;;;;;;;;4957019;28;20279;-69
2023/01/10 11:47:42;;;;;;;15.02;3.65;;;;;;;;;;4957612;28;20222;-71
2023/01/10 11:50:07;;;;;;;12.03;3.20;;;;;;;;;;4956632;28;20678;-70
2023/01/10 11:52:33;;;;;;;16.83;3.57;;;;;;;;;;4972751;28;20221;-70
2023/01/10 11:54:59;;;;;;;15.10;3.83;;;;;;;;;;4976482;28;20267;-70
2023/01/10 11:57:25;;;;;;;13.73;3.43;;;;;;;;;;4975578;28;20653;-70
2023/01/10 11:59:51;;;;;;;12.30;3.20;;;;;;;;;;4975378;28;20218;-70
2023/01/10 12:02:24;;;;;;;11.37;3.07;;;;;;;;;;4974694;28;20229;-70
2023/01/10 12:04:49;;;;;;;12.60;3.73;;;;;;;;;;4975541;28;20701;-70
2023/01/10 12:07:14;;;;;;;12.73;3.57;;;;;;;;;;4959025;28;20317;-70
2023/01/10 12:09:41;;;;;;;11.25;3.28;;;;;;;;;;4956988;28;20246;-70
2023/01/10 12:12:16;;;;;;;12.32;3.35;;;;;;;;;;4959072;28;20206;-70
2023/01/10 12:14:41;;;;;;;10.77;3.50;;;;;;;;;;4976045;28;20216;-70
2023/01/10 12:17:09;;;;;;;13.53;3.30;;;;;;;;;;4975760;28;20209;-69
2023/01/10 12:19:34;;;;;;;11.23;3.00;;;;;;;;;;4974383;28;20209;-70
2023/01/10 12:22:00;;;;;;;13.48;3.75;;;;;;;;;;4975850;28;20353;-70
2023/01/10 12:24:27;;;;;;;13.87;3.37;;;;;;;;;;4975690;28;20225;-70
2023/01/10 12:26:52;;;;;;;10.77;2.85;;;;;;;;;;4975235;28;20631;-70
2023/01/10 12:29:23;;;;;;;13.73;3.43;;;;;;;;;;4975606;28;20688;-70
2023/01/10 12:31:48;;;;;;;12.53;3.03;;;;;;;;;;4973959;28;20213;-70
2023/01/10 12:34:16;;;;;;;12.63;3.30;;;;;;;;;;4974317;28;20217;-69
2023/01/10 12:36:43;;;;;;;11.80;3.10;;;;;;;;;;4941885;28;20238;-71
2023/01/10 12:39:18;;;;;;;11.30;3.00;;;;;;;;;;4955168;29;20225;-69
2023/01/10 12:44:32;;;;;;;13.83;3.30;;;;;;;;;;4936893;29;20238;-71
2023/01/10 12:47:00;;;;;;;10.90;3.27;;;;;;;;;;4936418;29;20258;-70
2023/01/10 12:49:28;;;;;;;12.80;3.40;;;;;;;;;;4919941;29;20222;-70
2023/01/10 12:51:53;;;;;;;13.40;3.65;;;;;;;;;;4948105;28;20305;-70
2023/01/10 12:54:20;;;;;;;13.23;3.10;;;;;;;;;;4937870;28;20348;-70
2023/01/10 12:56:45;;;;;;;9.80;3.13;;;;;;;;;;4938955;29;20221;-70
2023/01/10 12:59:36;;;;;;;13.37;3.40;;;;;;;;;;4938682;28;20215;-69
2023/01/10 13:02:01;;;;;;;10.65;2.90;;;;;;;;;;4954787;28;20215;-68
2023/01/10 13:04:26;;;;;;;11.57;3.30;;;;;;;;;;4955717;28;20674;-70
2023/01/10 13:06:52;;;;;;;9.45;2.95;;;;;;;;;;4943007;28;20754;-70
2023/01/10 13:09:18;;;;;;;14.60;3.27;;;;;;;;;;4948894;28;20737;-69
2023/01/10 13:11:47;;;;;;;11.32;3.03;;;;;;;;;;4934482;29;20675;-69
2023/01/10 13:14:13;;;;;;;14.37;3.47;;;;;;;;;;4934807;28;20249;-69
2023/01/10 13:16:38;;;;;;;15.37;3.53;;;;;;;;;;4955731;28;20669;-69
2023/01/10 13:19:05;;;;;;;12.37;3.67;;;;;;;;;;4954698;28;20214;-69
2023/01/10 13:21:31;;;;;;;12.27;3.07;;;;;;;;;;4954697;28;20580;-70
2023/01/10 13:23:57;;;;;;;12.63;3.20;;;;;;;;;;4938531;29;20705;-70
2023/01/10 13:26:22;;;;;;;8.27;2.70;;;;;;;;;;4954974;28;20241;-70
2023/01/10 13:28:58;;;;;;;12.60;3.40;;;;;;;;;;4954860;28;20238;-70
2023/01/10 13:31:24;;;;;;;11.63;3.13;;;;;;;;;;4954715;28;20214;-70
2023/01/10 13:33:51;;;;;;;12.87;3.30;;;;;;;;;;4937799;29;20230;-70
2023/01/10 13:36:18;;;;;;;10.53;3.00;;;;;;;;;;4962558;28;20237;-70
2023/01/10 13:38:49;;;;;;;13.07;3.13;;;;;;;;;;4974873;28;20222;-70
2023/01/10 13:44:00;;;;;;;11.77;3.10;;;;;;;;;;4972800;28;20707;-70
2023/01/10 13:46:26;;;;;;;10.70;3.30;;;;;;;;;;4974239;28;20240;-69
2023/01/10 13:48:53;;;;;;;11.53;3.37;;;;;;;;;;4989317;28;20677;-71
2023/01/10 13:51:19;;;;;;;15.10;3.63;;;;;;;;;;4972372;28;20225;-70
2023/01/10 13:53:50;;;;;;;13.80;3.57;;;;;;;;;;4972982;28;20214;-70
2023/01/10 13:56:32;;;;;;;13.13;3.57;;;;;;;;;;4973165;28;20217;-69
2023/01/10 14:04:26;;;;;;;13.43;3.30;;;;;;;;;;4957808;28;20283;-70
2023/01/10 14:06:54;;;;;;;10.20;3.40;;;;;;;;;;4966861;28;20241;-70
2023/01/10 14:09:19;;;;;;;12.87;4.07;;;;;;;;;;4972484;28;20234;-70
2023/01/10 14:11:44;;;;;;;12.25;3.03;;;;;;;;;;4972927;28;20244;-71
2023/01/10 14:14:22;;;;;;;10.37;3.20;;;;;;;;;;4958174;28;20615;-68
2023/01/10 14:16:48;;;;;;;10.73;2.93;;;;;;;;;;4953770;28;20698;-70
2023/01/10 14:19:25;;;;;;;12.70;3.60;;;;;;;;;;4953124;28;20246;-69
2023/01/10 14:21:51;;;;;;;12.30;3.40;;;;;;;;;;4954653;28;20239;-69
2023/01/10 14:24:20;;;;;;;13.17;3.37;;;;;;;;;;4952210;28;20273;-69
2023/01/10 14:26:46;;;;;;;13.23;3.00;;;;;;;;;;4953376;28;20301;-69
2023/01/10 14:29:14;;;;;;;11.50;3.30;;;;;;;;;;4952670;28;20234;-69
2023/01/10 14:31:43;;;;;;;10.57;2.87;;;;;;;;;;4953858;28;20218;-69
2023/01/10 14:34:09;;;;;;;9.27;3.00;;;;;;;;;;4953666;28;20697;-69
2023/01/10 14:36:40;;;;;;;12.77;3.53;;;;;;;;;;4952989;28;20305;-69
2023/01/10 14:39:05;;;;;;;12.02;3.10;;;;;;;;;;4952053;28;20211;-68
2023/01/10 14:41:31;;;;;;;14.47;3.07;;;;;;;;;;4962866;28;20214;-69
2023/01/10 14:43:58;;;;;;;10.85;3.00;;;;;;;;;;4973429;28;20233;-69
2023/01/10 14:46:25;;;;;;;13.23;3.10;;;;;;;;;;4971148;28;20206;-70
2023/01/10 14:48:51;;;;;;;11.63;3.10;;;;;;;;;;4972467;28;20575;-69
2023/01/10 14:51:19;;;;;;;13.43;2.60;;;;;;;;;;4965981;28;20206;-69